sensor_id;sensor_type;location;lat;lon;timestamp;P1;durP1;ratioP1;P2;durP2;ratioP2
5465;SDS011;2755;50.728;7.108;2022-08-20T00:01:23;1.50;;;1.03;;
5465;SDS011;2755;50.728;7.108;2022-08-20T00:03:49;1.50;;;0.80;;
5465;SDS011;2755;50.728;7.108;2022-08-20T00:06:16;1.10;;;0.90;;
5465;SDS011;2755;50.728;7.108;2022-08-20T00:08:43;2.30;;;1.20;;
5465;SDS011;2755;50.728;7.108;2022-08-20T00:11:11;1.77;;;1.40;;
5465;SDS011;2755;50.728;7.108;2022-08-20T00:13:44;2.23;;;1.30;;
5465;SDS011;2755;50.728;7.108;2022-08-20T00:16:12;2.43;;;1.27;;
5465;SDS011;2755;50.728;7.108;2022-08-20T00:18:38;1.77;;;1.13;;
5465;SDS011;2755;50.728;7.108;2022-08-20T00:21:06;1.77;;;1.40;;
5465;SDS011;2755;50.728;7.108;2022-08-20T00:23:37;2.07;;;1.20;;
5465;SDS011;2755;50.728;7.108;2022-08-20T00:26:04;3.40;;;1.33;;
5465;SDS011;2755;50.728;7.108;2022-08-20T00:28:30;2.93;;;1.27;;
5465;SDS011;2755;50.728;7.108;2022-08-20T00:30:56;1.43;;;1.00;;
5465;SDS011;2755;50.728;7.108;2022-08-20T00:33:22;2.17;;;1.20;;
5465;SDS011;2755;50.728;7.108;2022-08-20T00:35:49;1.03;;;0.93;;
5465;SDS011;2755;50.728;7.108;2022-08-20T00:38:17;1.63;;;1.10;;
5465;SDS011;2755;50.728;7.108;2022-08-20T00:40:46;2.97;;;1.67;;
5465;SDS011;2755;50.728;7.108;2022-08-20T00:46:27;3.93;;;2.00;;
5465;SDS011;2755;50.728;7.108;2022-08-20T00:48:54;4.30;;;2.00;;
5465;SDS011;2755;50.728;7.108;2022-08-20T00:51:24;2.97;;;2.50;;
5465;SDS011;2755;50.728;7.108;2022-08-20T00:53:55;3.50;;;2.00;;
5465;SDS011;2755;50.728;7.108;2022-08-20T00:56:26;3.10;;;2.27;;
5465;SDS011;2755;50.728;7.108;2022-08-20T00:58:54;3.70;;;2.00;;
5465;SDS011;2755;50.728;7.108;2022-08-20T01:01:20;2.53;;;2.33;;
5465;SDS011;2755;50.728;7.108;2022-08-20T01:03:47;5.10;;;2.60;;
5465;SDS011;2755;50.728;7.108;2022-08-20T01:06:13;4.23;;;2.13;;
5465;SDS011;2755;50.728;7.108;2022-08-20T01:08:39;2.77;;;2.30;;
5465;SDS011;2755;50.728;7.108;2022-08-20T01:11:08;2.70;;;2.50;;
5465;SDS011;2755;50.728;7.108;2022-08-20T01:13:40;3.20;;;2.30;;
5465;SDS011;2755;50.728;7.108;2022-08-20T01:16:13;3.10;;;2.57;;
5465;SDS011;2755;50.728;7.108;2022-08-20T01:18:44;3.67;;;2.20;;
5465;SDS011;2755;50.728;7.108;2022-08-20T01:21:12;2.50;;;2.23;;
5465;SDS011;2755;50.728;7.108;2022-08-20T01:23:48;2.80;;;2.13;;
5465;SDS011;2755;50.728;7.108;2022-08-20T01:26:29;2.20;;;1.93;;
5465;SDS011;2755;50.728;7.108;2022-08-20T01:29:02;4.23;;;2.13;;
5465;SDS011;2755;50.728;7.108;2022-08-20T01:31:32;3.60;;;2.00;;
5465;SDS011;2755;50.728;7.108;2022-08-20T01:34:00;6.03;;;2.20;;
5465;SDS011;2755;50.728;7.108;2022-08-20T01:36:30;2.23;;;1.93;;
5465;SDS011;2755;50.728;7.108;2022-08-20T01:39:05;2.27;;;1.70;;
5465;SDS011;2755;50.728;7.108;2022-08-20T01:44:08;2.67;;;2.13;;
5465;SDS011;2755;50.728;7.108;2022-08-20T01:46:35;3.30;;;1.73;;
5465;SDS011;2755;50.728;7.108;2022-08-20T01:49:06;2.30;;;2.00;;
5465;SDS011;2755;50.728;7.108;2022-08-20T01:51:46;2.13;;;1.47;;
5465;SDS011;2755;50.728;7.108;2022-08-20T01:54:14;1.77;;;1.67;;
5465;SDS011;2755;50.728;7.108;2022-08-20T01:59:40;2.03;;;1.50;;
5465;SDS011;2755;50.728;7.108;2022-08-20T02:02:06;2.07;;;1.53;;
5465;SDS011;2755;50.728;7.108;2022-08-20T02:04:33;2.93;;;1.60;;
5465;SDS011;2755;50.728;7.108;2022-08-20T02:06:59;2.87;;;2.30;;
5465;SDS011;2755;50.728;7.108;2022-08-20T02:09:28;2.20;;;1.60;;
5465;SDS011;2755;50.728;7.108;2022-08-20T02:11:59;1.87;;;1.70;;
5465;SDS011;2755;50.728;7.108;2022-08-20T02:14:27;4.53;;;1.83;;
5465;SDS011;2755;50.728;7.108;2022-08-20T02:16:53;2.10;;;1.87;;
5465;SDS011;2755;50.728;7.108;2022-08-20T02:19:24;2.40;;;1.90;;
5465;SDS011;2755;50.728;7.108;2022-08-20T02:21:52;3.23;;;2.20;;
5465;SDS011;2755;50.728;7.108;2022-08-20T02:24:21;2.10;;;1.90;;
5465;SDS011;2755;50.728;7.108;2022-08-20T02:26:47;2.50;;;2.20;;
5465;SDS011;2755;50.728;7.108;2022-08-20T02:29:13;2.77;;;2.00;;
5465;SDS011;2755;50.728;7.108;2022-08-20T02:31:40;2.70;;;1.80;;
5465;SDS011;2755;50.728;7.108;2022-08-20T02:34:08;1.73;;;1.60;;
5465;SDS011;2755;50.728;7.108;2022-08-20T02:36:36;2.00;;;1.80;;
5465;SDS011;2755;50.728;7.108;2022-08-20T02:39:04;3.60;;;1.80;;
5465;SDS011;2755;50.728;7.108;2022-08-20T02:41:32;1.77;;;1.67;;
5465;SDS011;2755;50.728;7.108;2022-08-20T02:43:58;3.60;;;2.00;;
5465;SDS011;2755;50.728;7.108;2022-08-20T02:46:24;3.17;;;2.30;;
5465;SDS011;2755;50.728;7.108;2022-08-20T02:48:52;2.40;;;2.20;;
5465;SDS011;2755;50.728;7.108;2022-08-20T02:51:18;3.63;;;2.10;;
5465;SDS011;2755;50.728;7.108;2022-08-20T02:53:44;3.10;;;2.20;;
5465;SDS011;2755;50.728;7.108;2022-08-20T02:56:10;3.23;;;2.10;;
5465;SDS011;2755;50.728;7.108;2022-08-20T02:58:36;1.93;;;1.77;;
5465;SDS011;2755;50.728;7.108;2022-08-20T03:01:03;2.37;;;2.13;;
5465;SDS011;2755;50.728;7.108;2022-08-20T03:03:31;2.30;;;2.00;;
5465;SDS011;2755;50.728;7.108;2022-08-20T03:05:57;2.73;;;2.40;;
5465;SDS011;2755;50.728;7.108;2022-08-20T03:08:25;3.30;;;2.00;;
5465;SDS011;2755;50.728;7.108;2022-08-20T03:10:52;2.20;;;2.00;;
5465;SDS011;2755;50.728;7.108;2022-08-20T03:13:18;3.30;;;2.47;;
5465;SDS011;2755;50.728;7.108;2022-08-20T03:15:46;3.17;;;2.80;;
5465;SDS011;2755;50.728;7.108;2022-08-20T03:18:15;6.03;;;2.77;;
5465;SDS011;2755;50.728;7.108;2022-08-20T03:20:42;3.40;;;2.20;;
5465;SDS011;2755;50.728;7.108;2022-08-20T03:23:08;2.40;;;2.20;;
5465;SDS011;2755;50.728;7.108;2022-08-20T03:25:34;2.67;;;2.17;;
5465;SDS011;2755;50.728;7.108;2022-08-20T03:28:00;3.20;;;2.37;;
5465;SDS011;2755;50.728;7.108;2022-08-20T03:30:26;4.60;;;3.00;;
5465;SDS011;2755;50.728;7.108;2022-08-20T03:32:53;2.57;;;2.37;;
5465;SDS011;2755;50.728;7.108;2022-08-20T03:35:20;3.93;;;2.20;;
5465;SDS011;2755;50.728;7.108;2022-08-20T03:37:48;4.37;;;2.97;;
5465;SDS011;2755;50.728;7.108;2022-08-20T03:40:19;5.90;;;2.80;;
5465;SDS011;2755;50.728;7.108;2022-08-20T03:42:48;4.43;;;3.50;;
5465;SDS011;2755;50.728;7.108;2022-08-20T03:45:16;3.47;;;3.17;;
5465;SDS011;2755;50.728;7.108;2022-08-20T03:47:43;7.43;;;2.63;;
5465;SDS011;2755;50.728;7.108;2022-08-20T03:50:09;1.93;;;1.70;;
5465;SDS011;2755;50.728;7.108;2022-08-20T03:52:35;3.13;;;2.40;;
5465;SDS011;2755;50.728;7.108;2022-08-20T03:55:02;4.10;;;2.40;;
5465;SDS011;2755;50.728;7.108;2022-08-20T03:57:29;6.50;;;3.27;;
5465;SDS011;2755;50.728;7.108;2022-08-20T03:59:55;5.23;;;2.40;;
5465;SDS011;2755;50.728;7.108;2022-08-20T04:02:22;6.30;;;2.43;;
5465;SDS011;2755;50.728;7.108;2022-08-20T04:04:49;6.10;;;2.80;;
5465;SDS011;2755;50.728;7.108;2022-08-20T04:07:18;5.43;;;2.30;;
5465;SDS011;2755;50.728;7.108;2022-08-20T04:09:49;3.97;;;2.57;;
5465;SDS011;2755;50.728;7.108;2022-08-20T04:12:16;2.40;;;2.10;;
5465;SDS011;2755;50.728;7.108;2022-08-20T04:14:42;2.73;;;2.47;;
5465;SDS011;2755;50.728;7.108;2022-08-20T04:17:09;3.70;;;2.57;;
5465;SDS011;2755;50.728;7.108;2022-08-20T04:19:36;3.00;;;2.70;;
5465;SDS011;2755;50.728;7.108;2022-08-20T04:22:02;2.90;;;2.60;;
5465;SDS011;2755;50.728;7.108;2022-08-20T04:24:28;3.40;;;2.53;;
5465;SDS011;2755;50.728;7.108;2022-08-20T04:26:54;3.53;;;3.00;;
5465;SDS011;2755;50.728;7.108;2022-08-20T04:29:24;4.53;;;2.70;;
5465;SDS011;2755;50.728;7.108;2022-08-20T04:31:50;2.27;;;2.03;;
5465;SDS011;2755;50.728;7.108;2022-08-20T04:34:17;2.83;;;2.23;;
5465;SDS011;2755;50.728;7.108;2022-08-20T04:36:44;3.23;;;2.40;;
5465;SDS011;2755;50.728;7.108;2022-08-20T04:39:11;2.70;;;2.50;;
5465;SDS011;2755;50.728;7.108;2022-08-20T04:41:41;2.77;;;2.20;;
5465;SDS011;2755;50.728;7.108;2022-08-20T04:44:07;4.70;;;3.20;;
5465;SDS011;2755;50.728;7.108;2022-08-20T04:46:34;3.50;;;2.80;;
5465;SDS011;2755;50.728;7.108;2022-08-20T04:49:00;3.40;;;2.50;;
5465;SDS011;2755;50.728;7.108;2022-08-20T04:51:27;3.30;;;2.43;;
5465;SDS011;2755;50.728;7.108;2022-08-20T04:53:53;3.60;;;3.20;;
5465;SDS011;2755;50.728;7.108;2022-08-20T04:56:24;3.50;;;3.20;;
5465;SDS011;2755;50.728;7.108;2022-08-20T04:58:53;2.97;;;2.67;;
5465;SDS011;2755;50.728;7.108;2022-08-20T05:01:19;5.53;;;3.20;;
5465;SDS011;2755;50.728;7.108;2022-08-20T05:03:46;6.00;;;4.23;;
5465;SDS011;2755;50.728;7.108;2022-08-20T05:06:13;5.60;;;3.47;;
5465;SDS011;2755;50.728;7.108;2022-08-20T05:08:40;7.40;;;4.27;;
5465;SDS011;2755;50.728;7.108;2022-08-20T05:11:06;4.07;;;3.67;;
5465;SDS011;2755;50.728;7.108;2022-08-20T05:13:35;5.57;;;4.17;;
5465;SDS011;2755;50.728;7.108;2022-08-20T05:16:02;5.07;;;3.73;;
5465;SDS011;2755;50.728;7.108;2022-08-20T05:18:28;5.90;;;3.90;;
5465;SDS011;2755;50.728;7.108;2022-08-20T05:20:57;6.73;;;4.40;;
5465;SDS011;2755;50.728;7.108;2022-08-20T05:23:28;4.17;;;3.57;;
5465;SDS011;2755;50.728;7.108;2022-08-20T05:25:55;3.63;;;3.20;;
5465;SDS011;2755;50.728;7.108;2022-08-20T05:28:22;5.37;;;3.93;;
5465;SDS011;2755;50.728;7.108;2022-08-20T05:30:50;4.63;;;3.40;;
5465;SDS011;2755;50.728;7.108;2022-08-20T05:33:17;5.90;;;4.77;;
5465;SDS011;2755;50.728;7.108;2022-08-20T05:35:46;9.77;;;6.90;;
5465;SDS011;2755;50.728;7.108;2022-08-20T05:38:14;6.97;;;5.47;;
5465;SDS011;2755;50.728;7.108;2022-08-20T05:40:42;7.17;;;5.77;;
5465;SDS011;2755;50.728;7.108;2022-08-20T05:43:09;10.20;;;7.27;;
5465;SDS011;2755;50.728;7.108;2022-08-20T05:45:36;6.90;;;4.83;;
5465;SDS011;2755;50.728;7.108;2022-08-20T05:48:06;10.70;;;8.03;;
5465;SDS011;2755;50.728;7.108;2022-08-20T05:50:35;15.60;;;10.00;;
5465;SDS011;2755;50.728;7.108;2022-08-20T05:53:02;10.00;;;7.70;;
5465;SDS011;2755;50.728;7.108;2022-08-20T05:55:27;6.67;;;5.60;;
5465;SDS011;2755;50.728;7.108;2022-08-20T05:57:57;10.23;;;6.40;;
5465;SDS011;2755;50.728;7.108;2022-08-20T06:00:24;9.73;;;7.70;;
5465;SDS011;2755;50.728;7.108;2022-08-20T06:02:50;9.87;;;6.63;;
5465;SDS011;2755;50.728;7.108;2022-08-20T06:05:35;16.73;;;10.30;;
5465;SDS011;2755;50.728;7.108;2022-08-20T06:08:02;16.73;;;10.77;;
5465;SDS011;2755;50.728;7.108;2022-08-20T06:10:29;16.90;;;10.87;;
5465;SDS011;2755;50.728;7.108;2022-08-20T06:12:55;11.30;;;8.47;;
5465;SDS011;2755;50.728;7.108;2022-08-20T06:15:21;12.93;;;8.97;;
5465;SDS011;2755;50.728;7.108;2022-08-20T06:17:46;10.70;;;8.10;;
5465;SDS011;2755;50.728;7.108;2022-08-20T06:20:12;11.20;;;7.70;;
5465;SDS011;2755;50.728;7.108;2022-08-20T06:22:40;9.43;;;6.80;;
5465;SDS011;2755;50.728;7.108;2022-08-20T06:25:06;13.80;;;9.20;;
5465;SDS011;2755;50.728;7.108;2022-08-20T06:27:36;13.70;;;9.00;;
5465;SDS011;2755;50.728;7.108;2022-08-20T06:30:03;11.53;;;9.27;;
5465;SDS011;2755;50.728;7.108;2022-08-20T06:32:29;11.77;;;9.40;;
5465;SDS011;2755;50.728;7.108;2022-08-20T06:34:55;9.80;;;7.27;;
5465;SDS011;2755;50.728;7.108;2022-08-20T06:37:21;14.30;;;7.73;;
5465;SDS011;2755;50.728;7.108;2022-08-20T06:39:50;11.20;;;9.03;;
5465;SDS011;2755;50.728;7.108;2022-08-20T06:42:16;12.57;;;8.97;;
5465;SDS011;2755;50.728;7.108;2022-08-20T06:44:42;11.33;;;7.60;;
5465;SDS011;2755;50.728;7.108;2022-08-20T06:47:09;12.77;;;8.73;;
5465;SDS011;2755;50.728;7.108;2022-08-20T06:49:38;9.30;;;7.20;;
5465;SDS011;2755;50.728;7.108;2022-08-20T06:52:04;10.00;;;6.87;;
5465;SDS011;2755;50.728;7.108;2022-08-20T06:54:30;9.20;;;6.10;;
5465;SDS011;2755;50.728;7.108;2022-08-20T06:56:56;8.77;;;7.17;;
5465;SDS011;2755;50.728;7.108;2022-08-20T06:59:22;9.97;;;7.90;;
5465;SDS011;2755;50.728;7.108;2022-08-20T07:01:48;15.30;;;8.30;;
5465;SDS011;2755;50.728;7.108;2022-08-20T07:04:14;6.40;;;5.40;;
5465;SDS011;2755;50.728;7.108;2022-08-20T07:06:40;9.60;;;6.57;;
5465;SDS011;2755;50.728;7.108;2022-08-20T07:09:06;10.10;;;8.00;;
5465;SDS011;2755;50.728;7.108;2022-08-20T07:11:32;8.43;;;6.80;;
5465;SDS011;2755;50.728;7.108;2022-08-20T07:13:59;8.40;;;6.10;;
5465;SDS011;2755;50.728;7.108;2022-08-20T07:16:29;6.77;;;5.60;;
5465;SDS011;2755;50.728;7.108;2022-08-20T07:18:54;10.17;;;6.50;;
5465;SDS011;2755;50.728;7.108;2022-08-20T07:21:22;8.93;;;5.90;;
5465;SDS011;2755;50.728;7.108;2022-08-20T07:23:48;8.97;;;6.63;;
5465;SDS011;2755;50.728;7.108;2022-08-20T07:26:13;5.47;;;4.00;;
5465;SDS011;2755;50.728;7.108;2022-08-20T07:28:39;7.77;;;4.70;;
5465;SDS011;2755;50.728;7.108;2022-08-20T07:31:05;4.80;;;4.20;;
5465;SDS011;2755;50.728;7.108;2022-08-20T07:33:49;7.90;;;5.40;;
5465;SDS011;2755;50.728;7.108;2022-08-20T07:36:15;7.30;;;5.70;;
5465;SDS011;2755;50.728;7.108;2022-08-20T07:38:41;10.90;;;6.57;;
5465;SDS011;2755;50.728;7.108;2022-08-20T07:41:11;7.00;;;4.33;;
5465;SDS011;2755;50.728;7.108;2022-08-20T07:43:39;5.60;;;4.50;;
5465;SDS011;2755;50.728;7.108;2022-08-20T07:46:06;6.93;;;5.47;;
5465;SDS011;2755;50.728;7.108;2022-08-20T07:48:33;7.57;;;4.97;;
5465;SDS011;2755;50.728;7.108;2022-08-20T07:51:04;8.37;;;5.07;;
5465;SDS011;2755;50.728;7.108;2022-08-20T07:53:33;8.10;;;4.73;;
5465;SDS011;2755;50.728;7.108;2022-08-20T07:56:00;10.03;;;6.70;;
5465;SDS011;2755;50.728;7.108;2022-08-20T07:58:27;7.70;;;5.07;;
5465;SDS011;2755;50.728;7.108;2022-08-20T08:00:54;11.07;;;5.97;;
5465;SDS011;2755;50.728;7.108;2022-08-20T08:03:20;6.17;;;5.03;;
5465;SDS011;2755;50.728;7.108;2022-08-20T08:05:46;8.73;;;5.73;;
5465;SDS011;2755;50.728;7.108;2022-08-20T08:08:16;8.83;;;5.33;;
5465;SDS011;2755;50.728;7.108;2022-08-20T08:10:46;7.40;;;5.83;;
5465;SDS011;2755;50.728;7.108;2022-08-20T08:13:14;7.67;;;5.10;;
5465;SDS011;2755;50.728;7.108;2022-08-20T08:15:42;7.60;;;4.20;;
5465;SDS011;2755;50.728;7.108;2022-08-20T08:18:11;5.33;;;4.67;;
5465;SDS011;2755;50.728;7.108;2022-08-20T08:20:41;5.10;;;4.07;;
5465;SDS011;2755;50.728;7.108;2022-08-20T08:23:10;6.03;;;4.10;;
5465;SDS011;2755;50.728;7.108;2022-08-20T08:25:40;5.80;;;5.20;;
5465;SDS011;2755;50.728;7.108;2022-08-20T08:28:07;6.43;;;4.10;;
5465;SDS011;2755;50.728;7.108;2022-08-20T08:30:36;4.40;;;3.83;;
5465;SDS011;2755;50.728;7.108;2022-08-20T08:33:04;4.50;;;3.93;;
5465;SDS011;2755;50.728;7.108;2022-08-20T08:35:48;5.00;;;3.77;;
5465;SDS011;2755;50.728;7.108;2022-08-20T08:38:14;5.50;;;4.13;;
5465;SDS011;2755;50.728;7.108;2022-08-20T08:40:41;6.50;;;5.57;;
5465;SDS011;2755;50.728;7.108;2022-08-20T08:43:07;8.17;;;5.87;;
5465;SDS011;2755;50.728;7.108;2022-08-20T08:45:38;5.50;;;4.90;;
5465;SDS011;2755;50.728;7.108;2022-08-20T08:48:10;6.47;;;5.60;;
5465;SDS011;2755;50.728;7.108;2022-08-20T08:50:37;6.70;;;4.73;;
5465;SDS011;2755;50.728;7.108;2022-08-20T08:53:07;6.60;;;4.80;;
5465;SDS011;2755;50.728;7.108;2022-08-20T08:55:40;8.40;;;5.40;;
5465;SDS011;2755;50.728;7.108;2022-08-20T08:58:06;8.50;;;5.43;;
5465;SDS011;2755;50.728;7.108;2022-08-20T09:00:34;6.40;;;3.57;;
5465;SDS011;2755;50.728;7.108;2022-08-20T09:03:03;5.03;;;3.83;;
5465;SDS011;2755;50.728;7.108;2022-08-20T09:05:35;5.20;;;4.00;;
5465;SDS011;2755;50.728;7.108;2022-08-20T09:08:02;6.90;;;4.57;;
5465;SDS011;2755;50.728;7.108;2022-08-20T09:10:31;5.50;;;3.83;;
5465;SDS011;2755;50.728;7.108;2022-08-20T09:12:57;5.70;;;4.80;;
5465;SDS011;2755;50.728;7.108;2022-08-20T09:15:23;5.77;;;4.40;;
5465;SDS011;2755;50.728;7.108;2022-08-20T09:17:49;3.80;;;3.37;;
5465;SDS011;2755;50.728;7.108;2022-08-20T09:20:15;5.60;;;4.90;;
5465;SDS011;2755;50.728;7.108;2022-08-20T09:22:42;5.27;;;4.77;;
5465;SDS011;2755;50.728;7.108;2022-08-20T09:25:08;4.77;;;3.97;;
5465;SDS011;2755;50.728;7.108;2022-08-20T09:27:33;5.63;;;4.03;;
5465;SDS011;2755;50.728;7.108;2022-08-20T09:30:00;7.90;;;4.07;;
5465;SDS011;2755;50.728;7.108;2022-08-20T09:32:25;4.47;;;3.90;;
5465;SDS011;2755;50.728;7.108;2022-08-20T09:34:52;5.60;;;4.70;;
5465;SDS011;2755;50.728;7.108;2022-08-20T09:37:24;4.57;;;3.47;;
5465;SDS011;2755;50.728;7.108;2022-08-20T09:39:51;4.27;;;3.50;;
5465;SDS011;2755;50.728;7.108;2022-08-20T09:42:18;6.97;;;4.30;;
5465;SDS011;2755;50.728;7.108;2022-08-20T09:44:46;4.07;;;2.90;;
5465;SDS011;2755;50.728;7.108;2022-08-20T09:47:12;4.90;;;3.00;;
5465;SDS011;2755;50.728;7.108;2022-08-20T09:49:38;3.40;;;2.77;;
5465;SDS011;2755;50.728;7.108;2022-08-20T09:52:05;6.90;;;4.63;;
5465;SDS011;2755;50.728;7.108;2022-08-20T09:54:33;7.73;;;3.70;;
5465;SDS011;2755;50.728;7.108;2022-08-20T09:57:01;8.57;;;4.87;;
5465;SDS011;2755;50.728;7.108;2022-08-20T09:59:27;4.50;;;2.90;;
5465;SDS011;2755;50.728;7.108;2022-08-20T10:01:55;5.70;;;4.00;;
5465;SDS011;2755;50.728;7.108;2022-08-20T10:04:21;3.73;;;2.90;;
5465;SDS011;2755;50.728;7.108;2022-08-20T10:06:46;7.80;;;5.10;;
5465;SDS011;2755;50.728;7.108;2022-08-20T10:09:12;6.20;;;4.33;;
5465;SDS011;2755;50.728;7.108;2022-08-20T10:11:38;5.63;;;2.90;;
5465;SDS011;2755;50.728;7.108;2022-08-20T10:14:04;5.43;;;4.17;;
5465;SDS011;2755;50.728;7.108;2022-08-20T10:16:32;6.07;;;3.90;;
5465;SDS011;2755;50.728;7.108;2022-08-20T10:18:59;9.37;;;4.60;;
5465;SDS011;2755;50.728;7.108;2022-08-20T10:21:24;4.57;;;3.20;;
5465;SDS011;2755;50.728;7.108;2022-08-20T10:23:50;3.90;;;3.30;;
5465;SDS011;2755;50.728;7.108;2022-08-20T10:26:16;7.00;;;3.73;;
5465;SDS011;2755;50.728;7.108;2022-08-20T10:28:42;5.53;;;3.43;;
5465;SDS011;2755;50.728;7.108;2022-08-20T10:31:08;7.40;;;3.93;;
5465;SDS011;2755;50.728;7.108;2022-08-20T10:33:35;4.07;;;3.27;;
5465;SDS011;2755;50.728;7.108;2022-08-20T10:36:06;3.37;;;3.07;;
5465;SDS011;2755;50.728;7.108;2022-08-20T10:38:37;8.90;;;3.60;;
5465;SDS011;2755;50.728;7.108;2022-08-20T10:41:03;6.43;;;3.87;;
5465;SDS011;2755;50.728;7.108;2022-08-20T10:43:29;6.07;;;3.37;;
5465;SDS011;2755;50.728;7.108;2022-08-20T10:45:55;6.47;;;3.40;;
5465;SDS011;2755;50.728;7.108;2022-08-20T10:48:21;6.60;;;4.30;;
5465;SDS011;2755;50.728;7.108;2022-08-20T10:50:47;6.30;;;3.73;;
5465;SDS011;2755;50.728;7.108;2022-08-20T10:53:13;4.60;;;3.43;;
5465;SDS011;2755;50.728;7.108;2022-08-20T10:55:39;7.90;;;3.60;;
5465;SDS011;2755;50.728;7.108;2022-08-20T10:58:05;5.13;;;3.50;;
5465;SDS011;2755;50.728;7.108;2022-08-20T11:00:32;5.13;;;2.80;;
5465;SDS011;2755;50.728;7.108;2022-08-20T11:02:59;6.40;;;2.80;;
5465;SDS011;2755;50.728;7.108;2022-08-20T11:05:25;9.03;;;3.40;;
5465;SDS011;2755;50.728;7.108;2022-08-20T11:07:51;8.77;;;3.83;;
5465;SDS011;2755;50.728;7.108;2022-08-20T11:10:16;6.90;;;3.77;;
5465;SDS011;2755;50.728;7.108;2022-08-20T11:12:42;7.00;;;2.03;;
5465;SDS011;2755;50.728;7.108;2022-08-20T11:15:08;3.00;;;1.70;;
5465;SDS011;2755;50.728;7.108;2022-08-20T11:17:34;4.10;;;2.70;;
5465;SDS011;2755;50.728;7.108;2022-08-20T11:20:02;6.83;;;3.00;;
5465;SDS011;2755;50.728;7.108;2022-08-20T11:22:29;4.97;;;2.40;;
5465;SDS011;2755;50.728;7.108;2022-08-20T11:24:55;8.63;;;3.03;;
5465;SDS011;2755;50.728;7.108;2022-08-20T11:27:28;7.23;;;2.57;;
5465;SDS011;2755;50.728;7.108;2022-08-20T11:29:57;6.07;;;2.67;;
5465;SDS011;2755;50.728;7.108;2022-08-20T11:32:23;9.47;;;3.00;;
5465;SDS011;2755;50.728;7.108;2022-08-20T11:34:50;6.47;;;2.77;;
5465;SDS011;2755;50.728;7.108;2022-08-20T11:37:16;7.43;;;2.40;;
5465;SDS011;2755;50.728;7.108;2022-08-20T11:39:43;4.33;;;1.83;;
5465;SDS011;2755;50.728;7.108;2022-08-20T11:42:09;4.17;;;1.87;;
5465;SDS011;2755;50.728;7.108;2022-08-20T11:44:35;4.33;;;1.60;;
5465;SDS011;2755;50.728;7.108;2022-08-20T11:47:01;5.77;;;1.90;;
5465;SDS011;2755;50.728;7.108;2022-08-20T11:49:30;5.10;;;2.00;;
5465;SDS011;2755;50.728;7.108;2022-08-20T11:51:57;3.03;;;1.70;;
5465;SDS011;2755;50.728;7.108;2022-08-20T11:54:22;5.37;;;2.23;;
5465;SDS011;2755;50.728;7.108;2022-08-20T11:56:48;2.83;;;1.70;;
5465;SDS011;2755;50.728;7.108;2022-08-20T11:59:14;4.27;;;1.73;;
5465;SDS011;2755;50.728;7.108;2022-08-20T12:01:40;3.53;;;1.53;;
5465;SDS011;2755;50.728;7.108;2022-08-20T12:04:06;3.93;;;2.00;;
5465;SDS011;2755;50.728;7.108;2022-08-20T12:06:32;3.83;;;2.13;;
5465;SDS011;2755;50.728;7.108;2022-08-20T12:08:58;5.30;;;1.93;;
5465;SDS011;2755;50.728;7.108;2022-08-20T12:11:24;5.63;;;2.40;;
5465;SDS011;2755;50.728;7.108;2022-08-20T12:13:49;3.80;;;2.27;;
5465;SDS011;2755;50.728;7.108;2022-08-20T12:16:16;7.93;;;3.07;;
5465;SDS011;2755;50.728;7.108;2022-08-20T12:18:42;7.90;;;2.40;;
5465;SDS011;2755;50.728;7.108;2022-08-20T12:21:08;4.07;;;1.70;;
5465;SDS011;2755;50.728;7.108;2022-08-20T12:23:34;11.00;;;3.03;;
5465;SDS011;2755;50.728;7.108;2022-08-20T12:26:00;7.80;;;3.50;;
5465;SDS011;2755;50.728;7.108;2022-08-20T12:28:27;6.50;;;3.30;;
5465;SDS011;2755;50.728;7.108;2022-08-20T12:30:54;5.70;;;2.70;;
5465;SDS011;2755;50.728;7.108;2022-08-20T12:33:19;3.40;;;2.03;;
5465;SDS011;2755;50.728;7.108;2022-08-20T12:35:45;3.67;;;2.57;;
5465;SDS011;2755;50.728;7.108;2022-08-20T12:38:11;5.37;;;2.93;;
5465;SDS011;2755;50.728;7.108;2022-08-20T12:40:36;6.53;;;3.13;;
5465;SDS011;2755;50.728;7.108;2022-08-20T12:43:02;6.87;;;2.57;;
5465;SDS011;2755;50.728;7.108;2022-08-20T12:45:29;10.13;;;2.30;;
5465;SDS011;2755;50.728;7.108;2022-08-20T12:47:59;9.03;;;2.50;;
5465;SDS011;2755;50.728;7.108;2022-08-20T12:50:28;4.83;;;2.20;;
5465;SDS011;2755;50.728;7.108;2022-08-20T12:52:54;5.87;;;2.60;;
5465;SDS011;2755;50.728;7.108;2022-08-20T12:55:20;6.23;;;2.40;;
5465;SDS011;2755;50.728;7.108;2022-08-20T12:57:47;4.50;;;2.10;;
5465;SDS011;2755;50.728;7.108;2022-08-20T13:00:16;6.97;;;2.70;;
5465;SDS011;2755;50.728;7.108;2022-08-20T13:02:43;8.77;;;3.93;;
5465;SDS011;2755;50.728;7.108;2022-08-20T13:05:09;8.40;;;2.73;;
5465;SDS011;2755;50.728;7.108;2022-08-20T13:07:36;4.00;;;2.00;;
5465;SDS011;2755;50.728;7.108;2022-08-20T13:10:03;7.80;;;2.40;;
5465;SDS011;2755;50.728;7.108;2022-08-20T13:12:30;4.93;;;2.27;;
5465;SDS011;2755;50.728;7.108;2022-08-20T13:14:56;7.27;;;3.50;;
5465;SDS011;2755;50.728;7.108;2022-08-20T13:17:22;4.93;;;2.23;;
5465;SDS011;2755;50.728;7.108;2022-08-20T13:19:48;8.70;;;3.10;;
5465;SDS011;2755;50.728;7.108;2022-08-20T13:22:14;7.57;;;3.40;;
5465;SDS011;2755;50.728;7.108;2022-08-20T13:24:40;9.03;;;3.20;;
5465;SDS011;2755;50.728;7.108;2022-08-20T13:27:07;10.90;;;3.07;;
5465;SDS011;2755;50.728;7.108;2022-08-20T13:29:35;8.07;;;2.80;;
5465;SDS011;2755;50.728;7.108;2022-08-20T13:32:01;10.70;;;3.80;;
5465;SDS011;2755;50.728;7.108;2022-08-20T13:34:27;6.87;;;3.00;;
5465;SDS011;2755;50.728;7.108;2022-08-20T13:36:53;6.63;;;2.57;;
5465;SDS011;2755;50.728;7.108;2022-08-20T13:39:20;13.20;;;4.00;;
5465;SDS011;2755;50.728;7.108;2022-08-20T13:41:47;7.10;;;2.70;;
5465;SDS011;2755;50.728;7.108;2022-08-20T13:44:13;9.87;;;2.80;;
5465;SDS011;2755;50.728;7.108;2022-08-20T13:46:38;8.73;;;2.93;;
5465;SDS011;2755;50.728;7.108;2022-08-20T13:49:04;9.10;;;3.27;;
5465;SDS011;2755;50.728;7.108;2022-08-20T13:51:30;8.33;;;3.40;;
5465;SDS011;2755;50.728;7.108;2022-08-20T13:53:56;6.70;;;2.80;;
5465;SDS011;2755;50.728;7.108;2022-08-20T13:56:21;8.20;;;2.43;;
5465;SDS011;2755;50.728;7.108;2022-08-20T13:58:47;6.87;;;2.43;;
5465;SDS011;2755;50.728;7.108;2022-08-20T14:01:13;7.50;;;2.70;;
5465;SDS011;2755;50.728;7.108;2022-08-20T14:03:38;10.00;;;2.93;;
5465;SDS011;2755;50.728;7.108;2022-08-20T14:06:04;8.50;;;2.60;;
5465;SDS011;2755;50.728;7.108;2022-08-20T14:08:30;9.57;;;2.20;;
5465;SDS011;2755;50.728;7.108;2022-08-20T14:10:56;10.33;;;2.60;;
5465;SDS011;2755;50.728;7.108;2022-08-20T14:13:23;6.33;;;2.10;;
5465;SDS011;2755;50.728;7.108;2022-08-20T14:15:50;8.30;;;2.43;;
5465;SDS011;2755;50.728;7.108;2022-08-20T14:18:16;6.63;;;1.70;;
5465;SDS011;2755;50.728;7.108;2022-08-20T14:20:42;8.50;;;2.73;;
5465;SDS011;2755;50.728;7.108;2022-08-20T14:23:08;7.90;;;3.30;;
5465;SDS011;2755;50.728;7.108;2022-08-20T14:25:34;9.20;;;2.53;;
5465;SDS011;2755;50.728;7.108;2022-08-20T14:28:10;10.83;;;3.20;;
5465;SDS011;2755;50.728;7.108;2022-08-20T14:30:45;11.23;;;3.40;;
5465;SDS011;2755;50.728;7.108;2022-08-20T14:33:12;11.77;;;3.30;;
5465;SDS011;2755;50.728;7.108;2022-08-20T14:35:38;9.13;;;3.13;;
5465;SDS011;2755;50.728;7.108;2022-08-20T14:38:04;6.77;;;3.30;;
5465;SDS011;2755;50.728;7.108;2022-08-20T14:40:30;5.43;;;2.53;;
5465;SDS011;2755;50.728;7.108;2022-08-20T14:42:56;9.70;;;2.50;;
5465;SDS011;2755;50.728;7.108;2022-08-20T14:45:22;10.07;;;2.57;;
5465;SDS011;2755;50.728;7.108;2022-08-20T14:47:49;8.87;;;2.47;;
5465;SDS011;2755;50.728;7.108;2022-08-20T14:50:21;6.67;;;2.50;;
5465;SDS011;2755;50.728;7.108;2022-08-20T14:52:55;10.47;;;2.67;;
5465;SDS011;2755;50.728;7.108;2022-08-20T14:55:21;10.13;;;3.40;;
5465;SDS011;2755;50.728;7.108;2022-08-20T14:57:49;8.60;;;2.70;;
5465;SDS011;2755;50.728;7.108;2022-08-20T15:00:17;11.60;;;2.50;;
5465;SDS011;2755;50.728;7.108;2022-08-20T15:02:53;9.77;;;2.60;;
5465;SDS011;2755;50.728;7.108;2022-08-20T15:05:20;12.40;;;3.20;;
5465;SDS011;2755;50.728;7.108;2022-08-20T15:07:47;9.30;;;2.60;;
5465;SDS011;2755;50.728;7.108;2022-08-20T15:10:19;5.13;;;2.43;;
5465;SDS011;2755;50.728;7.108;2022-08-20T15:12:47;8.00;;;2.20;;
5465;SDS011;2755;50.728;7.108;2022-08-20T15:15:13;6.50;;;1.73;;
5465;SDS011;2755;50.728;7.108;2022-08-20T15:17:41;5.80;;;2.00;;
5465;SDS011;2755;50.728;7.108;2022-08-20T15:20:10;6.77;;;1.90;;
5465;SDS011;2755;50.728;7.108;2022-08-20T15:22:41;5.60;;;2.47;;